Time;durP1;ratioP1;P1;durP2;ratioP2;P2;SDS_P1;SDS_P2;PMS_P1;PMS_P2;Temp;Humidity;BMP_temperature;BMP_pressure;BME280_temperature;BME280_humidity;BME280_pressure;Samples;Min_cycle;Max_cycle;Signal;HPM_P1;HPM_P2
2022/04/18 00:01:53;;;;;;;5.60;4.57;;;;;;;7.17;39.43;99600.41;5085687;28;20041;-70
2022/04/18 00:04:23;;;;;;;6.13;4.07;;;;;;;7.20;39.60;99621.38;5085828;28;20101;-70
2022/04/18 00:06:53;;;;;;;4.70;3.88;;;;;;;7.29;39.17;99589.41;5085882;28;20047;-70
2022/04/18 00:09:25;;;;;;;5.50;3.97;;;;;;;7.29;39.37;99591.19;5085959;28;20240;-70
2022/04/18 00:11:54;;;;;;;5.93;4.05;;;;;;;7.30;38.92;99580.56;5068058;28;20075;-70
2022/04/18 00:14:24;;;;;;;5.68;3.35;;;;;;;7.30;39.06;99592.91;5085500;28;20048;-70
2022/04/18 00:16:54;;;;;;;5.78;3.70;;;;;;;7.29;38.92;99576.22;5085806;28;20040;-70
2022/04/18 00:19:25;;;;;;;5.38;4.30;;;;;;;7.28;39.07;99563.09;5085777;28;20233;-70
2022/04/18 00:21:55;;;;;;;5.93;3.50;;;;;;;7.23;39.16;99565.91;5085728;28;20074;-71
2022/04/18 00:24:26;;;;;;;4.65;3.78;;;;;;;6.83;39.29;99498.03;5085660;28;20040;-71
2022/04/18 00:26:55;;;;;;;5.03;3.70;;;;;;;7.22;39.30;99564.19;5085619;28;20040;-70
2022/04/18 00:29:25;;;;;;;5.00;3.90;;;;;;;7.14;39.42;99553.06;5085639;28;20138;-70
2022/04/18 00:31:56;;;;;;;6.22;4.38;;;;;;;7.16;39.65;99550.38;5067754;28;20037;-71
2022/04/18 00:34:26;;;;;;;5.25;3.55;;;;;;;7.15;39.29;99553.94;5085511;28;20099;-70
2022/04/18 00:36:56;;;;;;;5.95;4.40;;;;;;;7.19;39.38;99545.00;5085269;28;20051;-70
2022/04/18 00:39:28;;;;;;;4.95;3.78;;;;;;;7.13;39.63;99553.13;5085494;28;20032;-70
2022/04/18 00:41:57;;;;;;;6.57;4.45;;;;;;;7.09;39.67;99544.47;5085198;28;20041;-70
2022/04/18 00:44:27;;;;;;;5.40;4.32;;;;;;;7.09;39.42;99538.34;5085205;28;20052;-70
2022/04/18 00:46:57;;;;;;;4.75;3.42;;;;;;;6.99;39.97;99543.97;5085416;28;20041;-70
2022/04/18 00:49:28;;;;;;;4.90;4.10;;;;;;;6.88;40.04;99537.38;5085127;28;20032;-71
2022/04/18 00:51:58;;;;;;;5.70;3.70;;;;;;;6.91;39.91;99540.75;5085138;28;20048;-71
2022/04/18 00:54:30;;;;;;;7.18;4.60;;;;;;;6.91;40.27;99534.63;5067418;28;20041;-71
2022/04/18 00:56:58;;;;;;;4.75;3.75;;;;;;;6.63;39.98;99484.72;5085150;28;20235;-70
2022/04/18 00:59:32;;;;;;;5.15;4.18;;;;;;;6.82;40.62;99533.19;5085327;28;20040;-71
2022/04/18 01:02:04;;;;;;;5.50;4.68;;;;;;;6.84;40.09;99528.72;5067478;28;20058;-71
2022/04/18 01:04:34;;;;;;;5.90;3.72;;;;;;;6.22;40.21;99428.31;5084900;28;20061;-70
2022/04/18 01:07:05;;;;;;;5.28;3.88;;;;;;;6.87;40.18;99527.75;5085253;28;20040;-70
2022/04/18 01:09:36;;;;;;;6.00;4.13;;;;;;;6.83;40.40;99527.00;5065109;28;20049;-70
2022/04/18 01:12:05;;;;;;;5.80;4.00;;;;;;;6.78;40.94;99517.53;5065146;28;20041;-70
2022/04/18 01:14:36;;;;;;;5.35;4.13;;;;;;;6.51;40.37;99470.22;5064755;28;20212;-70
2022/04/18 01:17:05;;;;;;;6.38;4.13;;;;;;;6.73;40.81;99517.69;5065164;28;20045;-70
2022/04/18 01:19:35;;;;;;;4.95;3.22;;;;;;;6.66;40.43;99514.44;5065025;28;20037;-70
2022/04/18 01:22:09;;;;;;;5.68;4.03;;;;;;;6.48;41.74;99506.34;5064361;28;20048;-70
2022/04/18 01:30:33;;;;;;;5.57;4.15;;;;;;;6.23;41.26;99504.59;5059561;28;20061;-70
2022/04/18 01:33:05;;;;;;;4.88;3.38;;;;;;;6.13;41.64;99508.44;5064610;28;20228;-70
2022/04/18 01:35:38;;;;;;;4.60;3.60;;;;;;;6.14;41.44;99504.91;5064837;28;20286;-70
2022/04/18 01:38:11;;;;;;;5.10;3.63;;;;;;;6.08;41.51;99498.09;5064560;28;20045;-70
2022/04/18 01:40:43;;;;;;;4.65;3.30;;;;;;;6.18;41.22;99496.00;5064779;28;20040;-70
2022/04/18 01:43:16;;;;;;;5.13;4.28;;;;;;;6.25;41.47;99491.38;5064460;28;20045;-70
2022/04/18 01:45:48;;;;;;;6.53;5.10;;;;;;;6.20;41.91;99491.53;5067481;28;20288;-70
2022/04/18 01:48:20;;;;;;;5.20;4.43;;;;;;;6.16;41.38;99486.44;5068202;28;20091;-70
2022/04/18 01:50:52;;;;;;;9.82;4.45;;;;;;;6.08;41.76;99478.81;5068222;28;20063;-70
2022/04/18 01:53:28;;;;;;;5.30;4.10;;;;;;;6.00;41.59;99484.34;5068221;28;20083;-70
2022/04/18 01:56:00;;;;;;;5.18;3.90;;;;;;;5.91;41.71;99475.91;5068076;28;20041;-70
2022/04/18 01:58:32;;;;;;;5.60;4.43;;;;;;;5.86;41.74;99475.19;5068032;28;20244;-69
2022/04/18 02:01:04;;;;;;;4.70;3.83;;;;;;;5.81;41.98;99474.50;5068265;28;20087;-70
2022/04/18 02:03:41;;;;;;;5.38;4.03;;;;;;;5.74;43.05;99474.69;5067962;28;20052;-69
2022/04/18 02:06:13;;;;;;;4.55;3.65;;;;;;;5.77;42.23;99471.09;5067376;28;20091;-70
2022/04/18 02:08:47;;;;;;;4.95;4.35;;;;;;;5.74;42.41;99469.44;5080961;28;20316;-70
2022/04/18 02:11:20;;;;;;;6.50;4.30;;;;;;;5.70;42.23;99459.94;5087890;28;20044;-70
2022/04/18 02:13:52;;;;;;;5.85;3.97;;;;;;;5.67;42.03;99465.31;5087704;28;20247;-70
2022/04/18 02:16:25;;;;;;;4.95;3.90;;;;;;;5.64;42.42;99459.28;5088032;28;20048;-70
2022/04/18 02:18:57;;;;;;;7.07;5.03;;;;;;;5.58;42.93;99459.50;5087726;28;20281;-70
2022/04/18 02:21:29;;;;;;;5.72;3.83;;;;;;;5.54;42.47;99453.47;5087770;28;20243;-70
2022/04/18 02:24:03;;;;;;;5.30;4.00;;;;;;;5.60;42.59;99449.78;5087926;28;20089;-70
2022/04/18 02:26:35;;;;;;;5.10;4.22;;;;;;;5.60;42.45;99453.28;5087759;28;20040;-70
2022/04/18 02:29:07;;;;;;;6.10;4.50;;;;;;;5.44;42.90;99449.44;5087413;28;20086;-70
2022/04/18 02:34:26;;;;;;;8.57;4.30;;;;;;;5.40;42.75;99448.66;5069506;28;20355;-70
2022/04/18 02:36:58;;;;;;;8.27;4.53;;;;;;;5.29;43.56;99444.66;5069860;28;20044;-70
2022/04/18 02:39:31;;;;;;;5.25;4.35;;;;;;;5.24;43.67;99436.94;5087461;28;20086;-70
2022/04/18 02:42:05;;;;;;;6.07;4.20;;;;;;;5.20;43.85;99437.94;5087321;28;20083;-70
2022/04/18 02:44:34;;;;;;;7.80;4.53;;;;;;;5.13;43.64;99441.66;5087348;28;20059;-70
2022/04/18 02:47:05;;;;;;;4.88;4.10;;;;;;;5.09;43.81;99432.16;5087288;28;20082;-70
2022/04/18 02:49:37;;;;;;;5.50;4.25;;;;;;;5.09;44.46;99429.53;5087194;28;20040;-70
2022/04/18 02:52:05;;;;;;;6.05;4.72;;;;;;;5.27;43.29;99421.06;5069670;28;20075;-70
2022/04/18 02:54:36;;;;;;;4.68;3.90;;;;;;;5.30;43.99;99425.38;5087310;28;20085;-70
2022/04/18 02:57:05;;;;;;;4.53;4.00;;;;;;;5.24;43.33;99423.78;5086841;28;20062;-70
2022/04/18 02:59:35;;;;;;;6.60;4.72;;;;;;;4.89;43.78;99368.88;5087376;28;20037;-70
2022/04/18 03:02:06;;;;;;;6.20;4.32;;;;;;;5.22;43.34;99423.00;5087037;28;20090;-70
2022/04/18 03:04:36;;;;;;;5.65;4.20;;;;;;;5.15;43.53;99420.59;5053643;28;20045;-70
2022/04/18 03:07:06;;;;;;;6.75;5.05;;;;;;;3.87;43.77;99225.06;5087054;28;20040;-70
2022/04/18 03:09:38;;;;;;;4.75;4.10;;;;;;;5.04;43.50;99413.06;5066866;28;20064;-70
2022/04/18 03:12:08;;;;;;;6.03;3.80;;;;;;;5.00;44.26;99417.56;5067040;28;20051;-70
2022/04/18 03:14:37;;;;;;;6.20;4.45;;;;;;;4.75;43.99;99364.06;5049354;28;20204;-70
2022/04/18 03:17:07;;;;;;;8.18;5.00;;;;;;;5.01;43.90;99408.78;5067058;28;20052;-70
2022/04/18 03:19:37;;;;;;;6.18;4.50;;;;;;;5.06;43.86;99400.75;5066945;28;20065;-70
2022/04/18 03:22:08;;;;;;;5.85;4.20;;;;;;;3.92;44.18;99212.69;5066520;28;20037;-70
2022/04/18 03:24:39;;;;;;;6.13;5.00;;;;;;;4.63;44.20;99344.28;5066573;28;20186;-69
2022/04/18 03:27:08;;;;;;;6.18;4.38;;;;;;;4.97;43.97;99394.03;5066684;28;20083;-71
2022/04/18 03:29:39;;;;;;;8.00;4.63;;;;;;;4.97;43.95;99409.78;5066452;28;20037;-70
2022/04/18 03:32:09;;;;;;;4.72;4.13;;;;;;;5.00;44.05;99396.53;5066613;28;20091;-70
2022/04/18 03:34:39;;;;;;;6.65;4.82;;;;;;;5.01;44.26;99397.41;5066472;28;20033;-70
2022/04/18 03:40:00;;;;;;;6.75;4.07;;;;;;;5.10;44.13;99383.97;5066195;28;20045;-70
2022/04/18 03:42:32;;;;;;;6.78;4.82;;;;;;;5.06;44.46;99380.59;5066102;28;20041;-70
2022/04/18 03:45:06;;;;;;;4.68;3.95;;;;;;;4.99;43.83;99383.47;5066419;28;20053;-70
2022/04/18 03:47:38;;;;;;;5.97;4.55;;;;;;;5.09;43.82;99379.63;5066282;28;20041;-69
2022/04/18 03:50:10;;;;;;;6.25;4.25;;;;;;;5.08;44.12;99383.16;5066255;28;20037;-70
2022/04/18 03:52:43;;;;;;;6.20;5.15;;;;;;;5.06;43.82;99377.09;5066274;28;20087;-69
2022/04/18 03:55:17;;;;;;;6.28;4.93;;;;;;;4.79;44.16;99313.16;5048489;28;20083;-70
2022/04/18 03:57:49;;;;;;;5.43;4.93;;;;;;;5.19;44.17;99375.78;5066181;28;20045;-70
2022/04/18 04:00:21;;;;;;;6.43;4.85;;;;;;;5.10;44.57;99345.44;5066121;28;20087;-70
2022/04/18 04:02:53;;;;;;;6.85;4.63;;;;;;;5.14;43.86;99367.19;5066114;28;20045;-70
2022/04/18 04:05:25;;;;;;;6.80;4.95;;;;;;;5.10;44.03;99362.97;5048271;28;20339;-70
2022/04/18 04:07:57;;;;;;;6.30;4.78;;;;;;;5.09;44.07;99364.72;5071569;28;20103;-70
2022/04/18 04:10:31;;;;;;;7.40;5.00;;;;;;;5.09;44.68;99361.25;5085706;28;20082;-70
2022/04/18 04:13:04;;;;;;;6.22;4.82;;;;;;;5.02;44.56;99360.59;5085547;28;20047;-70
2022/04/18 04:15:37;;;;;;;6.07;4.00;;;;;;;4.98;44.15;99356.34;5085795;28;20045;-70
2022/04/18 04:18:09;;;;;;;5.78;4.35;;;;;;;4.91;44.45;99360.06;5085877;28;20105;-70
2022/04/18 04:20:41;;;;;;;6.78;4.78;;;;;;;4.88;44.40;99354.88;5085477;28;20036;-70
2022/04/18 04:23:14;;;;;;;6.47;4.50;;;;;;;4.97;44.80;99352.00;5068217;28;20346;-70
2022/04/18 04:25:47;;;;;;;5.78;4.00;;;;;;;4.87;44.67;99328.66;5085617;28;20247;-70
2022/04/18 04:28:20;;;;;;;6.40;4.45;;;;;;;5.11;43.75;99359.44;5085383;28;20044;-70
2022/04/18 04:30:52;;;;;;;8.23;5.53;;;;;;;5.13;43.64;99349.72;5085651;28;20101;-70
2022/04/18 04:33:24;;;;;;;5.63;4.20;;;;;;;5.13;43.88;99347.09;5085326;28;20049;-69
2022/04/18 04:35:56;;;;;;;5.65;4.00;;;;;;;5.22;43.49;99352.03;5085203;28;20293;-70
2022/04/18 04:38:29;;;;;;;4.93;4.07;;;;;;;5.34;44.45;99346.38;5085268;28;20040;-70
2022/04/18 04:41:02;;;;;;;4.32;3.42;;;;;;;5.47;43.74;99348.59;5085238;28;20236;-70
2022/04/18 04:43:35;;;;;;;5.10;3.88;;;;;;;5.23;43.32;99287.22;5068147;28;20044;-70
2022/04/18 04:46:07;;;;;;;5.45;4.40;;;;;;;5.56;43.97;99337.75;5085126;28;20044;-70
2022/04/18 04:48:39;;;;;;;6.72;5.10;;;;;;;5.62;44.10;99327.88;5085433;28;20040;-70
2022/04/18 04:51:11;;;;;;;5.50;4.68;;;;;;;5.68;43.01;99332.06;5085099;28;20062;-70
2022/04/18 04:53:44;;;;;;;5.53;4.60;;;;;;;5.71;43.03;99329.31;5085085;28;20045;-70
2022/04/18 04:56:18;;;;;;;5.63;4.40;;;;;;;5.73;43.82;99315.19;5084977;28;20236;-70
2022/04/18 04:58:50;;;;;;;6.38;4.53;;;;;;;5.77;43.66;99316.81;5085365;28;20139;-69
2022/04/18 05:01:22;;;;;;;7.45;4.80;;;;;;;5.81;43.66;99317.56;5085362;28;20041;-70
2022/04/18 05:03:54;;;;;;;6.57;4.57;;;;;;;5.83;44.31;99314.88;5085207;28;20053;-69
2022/04/18 05:06:27;;;;;;;6.50;4.90;;;;;;;5.84;43.47;99325.31;5085023;28;20045;-70
2022/04/18 05:08:59;;;;;;;6.45;4.72;;;;;;;5.86;43.63;99328.75;5085198;28;20056;-70
2022/04/18 05:11:32;;;;;;;5.53;4.60;;;;;;;5.88;43.51;99329.56;5085027;28;20040;-70
2022/04/18 05:14:05;;;;;;;5.97;4.22;;;;;;;5.86;42.99;99323.50;5084995;28;20041;-70
2022/04/18 05:16:37;;;;;;;5.85;4.57;;;;;;;5.94;43.52;99318.81;5084795;28;20090;-70
2022/04/18 05:19:09;;;;;;;6.03;4.28;;;;;;;5.99;42.90;99318.66;5087073;28;20036;-70
2022/04/18 05:21:42;;;;;;;5.68;4.50;;;;;;;6.01;43.36;99311.56;5071457;28;20239;-70
2022/04/18 05:24:14;;;;;;;5.13;4.40;;;;;;;6.08;42.75;99305.16;5089154;28;20049;-70
2022/04/18 05:26:47;;;;;;;6.25;4.00;;;;;;;6.13;43.53;99308.47;5088854;28;20045;-70
2022/04/18 05:29:19;;;;;;;4.75;3.83;;;;;;;6.12;43.07;99311.16;5088843;28;20086;-70
2022/04/18 05:31:52;;;;;;;5.90;4.05;;;;;;;6.12;43.26;99306.75;5089007;28;20086;-70
2022/04/18 05:34:24;;;;;;;5.25;4.22;;;;;;;6.16;43.08;99308.34;5088596;28;20047;-70
2022/04/18 05:36:56;;;;;;;6.93;5.20;;;;;;;6.20;43.50;99306.47;5088558;28;20094;-70
2022/04/18 05:39:28;;;;;;;5.45;4.75;;;;;;;6.15;43.91;99304.00;5088631;28;20040;-70
2022/04/18 05:42:02;;;;;;;4.63;3.95;;;;;;;6.22;43.42;99302.00;5088581;28;20041;-70
2022/04/18 05:44:35;;;;;;;6.20;3.88;;;;;;;6.24;43.04;99306.28;5088546;28;20044;-70
2022/04/18 05:47:07;;;;;;;5.53;4.63;;;;;;;6.32;42.69;99300.72;5088475;28;20044;-70
2022/04/18 05:49:39;;;;;;;5.13;3.50;;;;;;;6.33;42.72;99299.81;5071127;28;20040;-70
2022/04/18 05:52:13;;;;;;;4.30;3.42;;;;;;;6.37;42.75;99301.41;5088229;28;20040;-70
2022/04/18 05:54:45;;;;;;;5.85;3.85;;;;;;;6.37;42.58;99304.91;5088214;28;20044;-70
2022/04/18 05:57:21;;;;;;;5.22;4.22;;;;;;;6.39;42.55;99305.69;5088414;28;20083;-70
2022/04/18 05:59:53;;;;;;;5.30;4.00;;;;;;;6.36;42.60;99304.94;5088384;28;20040;-70
2022/04/18 06:02:23;;;;;;;4.53;3.75;;;;;;;6.38;42.28;99300.50;5088402;28;20041;-70
2022/04/18 06:04:54;;;;;;;5.72;3.90;;;;;;;6.43;42.25;99306.44;5088357;28;20297;-70
2022/04/18 06:07:23;;;;;;;5.45;4.00;;;;;;;6.52;42.86;99313.09;5087856;28;20060;-70
2022/04/18 06:09:54;;;;;;;4.93;3.72;;;;;;;6.63;42.28;99309.13;5087974;28;20082;-70
2022/04/18 06:12:26;;;;;;;5.78;4.18;;;;;;;6.74;42.16;99311.34;5070574;28;20082;-70
2022/04/18 06:14:54;;;;;;;5.90;3.38;;;;;;;6.81;42.22;99311.97;5088137;28;20328;-70
2022/04/18 06:17:24;;;;;;;5.07;3.90;;;;;;;6.87;41.90;99301.19;5088013;28;20112;-70
2022/04/18 06:19:55;;;;;;;3.95;3.35;;;;;;;6.88;41.78;99305.53;5087992;28;20040;-70
2022/04/18 06:22:25;;;;;;;5.03;3.38;;;;;;;6.89;42.06;99309.88;5087639;28;20048;-70
2022/04/18 06:24:55;;;;;;;3.83;2.97;;;;;;;6.91;42.05;99315.97;5087967;28;20040;-70
2022/04/18 06:27:27;;;;;;;5.60;3.60;;;;;;;6.97;42.33;99313.06;5087856;28;20094;-70
2022/04/18 06:29:56;;;;;;;8.13;3.33;;;;;;;6.99;42.08;99308.59;5069128;28;20056;-70
2022/04/18 06:32:27;;;;;;;5.07;3.38;;;;;;;7.03;41.72;99318.09;5087387;28;20309;-70
2022/04/18 06:34:58;;;;;;;5.55;3.58;;;;;;;7.06;41.59;99313.53;5087783;28;20058;-70
2022/04/18 06:37:26;;;;;;;4.53;3.40;;;;;;;7.06;41.73;99318.81;5069849;28;20060;-70
2022/04/18 06:39:57;;;;;;;4.95;3.13;;;;;;;7.11;41.54;99310.72;5087663;28;20090;-70
2022/04/18 06:42:28;;;;;;;5.43;3.90;;;;;;;7.18;41.57;99308.69;5087365;28;20041;-70
2022/04/18 06:44:57;;;;;;;6.57;4.55;;;;;;;7.19;41.32;99313.88;5087376;28;20079;-70
2022/04/18 06:47:27;;;;;;;4.75;3.60;;;;;;;7.21;41.49;99304.13;5087298;28;20048;-70
2022/04/18 06:49:58;;;;;;;4.18;3.47;;;;;;;7.25;41.33;99305.72;5087216;28;20040;-70
2022/04/18 06:52:28;;;;;;;6.57;4.90;;;;;;;7.30;41.20;99309.03;5087220;28;20067;-70
2022/04/18 06:55:00;;;;;;;4.88;3.17;;;;;;;7.29;41.54;99315.22;5087110;28;20041;-70
2022/04/18 06:57:29;;;;;;;4.72;3.50;;;;;;;7.28;41.39;99308.22;5087164;28;20071;-70
2022/04/18 06:59:59;;;;;;;4.55;3.20;;;;;;;7.27;41.25;99301.25;5069555;28;20046;-70
2022/04/18 07:02:29;;;;;;;4.78;3.15;;;;;;;7.23;41.36;99309.34;5086937;28;20087;-70
2022/04/18 07:04:59;;;;;;;3.92;2.72;;;;;;;7.26;41.15;99296.91;5086814;28;20196;-70
2022/04/18 07:07:29;;;;;;;4.60;3.55;;;;;;;7.25;41.51;99303.09;5086533;28;20056;-71
2022/04/18 07:10:00;;;;;;;6.45;3.67;;;;;;;7.31;41.16;99305.47;5086979;28;20040;-70
2022/04/18 07:12:31;;;;;;;5.45;3.30;;;;;;;7.31;41.31;99299.34;5086773;28;20044;-70
2022/04/18 07:15:00;;;;;;;4.53;3.08;;;;;;;7.33;41.36;99298.38;5087028;28;20204;-70
2022/04/18 07:17:31;;;;;;;4.65;3.22;;;;;;;7.31;41.31;99297.56;5086868;28;20038;-70
2022/04/18 07:20:00;;;;;;;4.38;2.80;;;;;;;7.33;41.45;99301.00;5086681;28;20047;-70
2022/04/18 07:22:31;;;;;;;4.43;3.45;;;;;;;7.35;41.57;99293.03;5086593;28;20040;-70
2022/04/18 07:25:01;;;;;;;4.38;3.40;;;;;;;7.37;41.58;99299.09;5086519;28;20226;-70
2022/04/18 07:27:33;;;;;;;5.75;2.85;;;;;;;7.39;41.52;99297.25;5086728;28;20044;-70
2022/04/18 07:30:01;;;;;;;3.45;2.42;;;;;;;7.37;41.45;99296.47;5069421;28;20052;-70
2022/04/18 07:32:32;;;;;;;4.55;3.35;;;;;;;7.37;41.45;99301.75;5086691;28;20040;-70
2022/04/18 07:35:03;;;;;;;4.30;3.40;;;;;;;7.35;41.31;99299.16;5086485;28;20240;-71
2022/04/18 07:37:32;;;;;;;4.65;3.10;;;;;;;7.35;41.42;99293.03;5086135;28;20033;-70
2022/04/18 07:40:03;;;;;;;4.88;3.70;;;;;;;7.29;41.68;99288.84;5086526;28;20059;-70
2022/04/18 07:42:34;;;;;;;5.50;3.40;;;;;;;7.36;41.52;99289.47;5085227;28;20040;-70
2022/04/18 07:45:04;;;;;;;5.25;3.33;;;;;;;7.30;41.61;99290.56;5086337;28;20208;-70
2022/04/18 07:47:33;;;;;;;4.32;2.58;;;;;;;7.26;41.70;99291.63;5086367;28;20082;-70
2022/04/18 07:50:04;;;;;;;3.78;2.78;;;;;;;7.27;41.69;99293.34;5086166;28;20040;-70
2022/04/18 07:52:34;;;;;;;4.93;3.65;;;;;;;7.32;41.62;99293.13;5086099;28;20048;-70
2022/04/18 07:55:05;;;;;;;4.95;3.42;;;;;;;7.40;41.59;99287.56;5085978;28;20200;-70
2022/04/18 07:57:37;;;;;;;5.40;3.63;;;;;;;7.41;41.78;99291.91;5086011;28;20082;-70
2022/04/18 08:00:11;;;;;;;5.28;3.20;;;;;;;7.38;41.72;99293.75;5068652;28;20045;-70
2022/04/18 08:02:51;;;;;;;5.63;3.20;;;;;;;7.41;41.81;99291.91;5160935;27;20524;-70
2022/04/18 08:05:23;;;;;;;4.15;3.10;;;;;;;7.37;41.88;99285.91;5143949;27;20040;-70
2022/04/18 08:07:56;;;;;;;4.57;3.13;;;;;;;6.77;42.00;99184.78;5143629;28;20039;-70
2022/04/18 08:10:29;;;;;;;5.63;2.95;;;;;;;7.33;42.39;99286.97;5143863;27;20035;-70
2022/04/18 08:13:01;;;;;;;5.45;3.40;;;;;;;7.35;42.57;99290.41;5142874;28;20037;-70
2022/04/18 08:15:34;;;;;;;7.93;3.17;;;;;;;7.40;42.51;99291.06;5143308;27;20039;-70
2022/04/18 08:18:08;;;;;;;3.95;2.65;;;;;;;7.42;43.03;99293.63;5143394;27;20039;-70
2022/04/18 08:20:40;;;;;;;4.90;2.85;;;;;;;7.46;42.92;99289.94;5143159;28;20046;-70
2022/04/18 08:23:14;;;;;;;6.13;2.90;;;;;;;7.46;43.44;99292.56;5142782;28;20039;-70
2022/04/18 08:25:46;;;;;;;5.07;2.65;;;;;;;7.46;43.07;99288.16;5143200;27;20035;-70
2022/04/18 08:28:19;;;;;;;4.97;2.92;;;;;;;7.46;43.26;99290.81;5143199;27;20318;-70
2022/04/18 08:30:51;;;;;;;4.35;3.25;;;;;;;7.47;44.13;99284.59;5142238;28;20212;-70
2022/04/18 08:33:25;;;;;;;4.15;2.70;;;;;;;7.55;43.84;99281.63;5143317;28;20039;-70
2022/04/18 08:35:58;;;;;;;4.55;2.78;;;;;;;7.55;43.62;99289.53;5143339;27;20081;-70
2022/04/18 08:38:30;;;;;;;4.65;3.42;;;;;;;7.57;44.11;99279.78;5142331;28;20043;-70
2022/04/18 08:41:05;;;;;;;5.30;3.50;;;;;;;7.52;44.82;99274.72;5142695;27;20065;-70
2022/04/18 08:43:37;;;;;;;4.15;3.03;;;;;;;7.50;44.04;99283.59;5142923;27;20039;-70
2022/04/18 08:46:09;;;;;;;5.10;3.15;;;;;;;7.53;44.05;99281.69;5142831;27;20040;-70
2022/04/18 08:54:26;;;;;;;3.38;2.55;;;;;;;7.28;44.05;99273.97;5118685;28;20059;-70
2022/04/18 08:56:59;;;;;;;4.65;2.67;;;;;;;7.28;43.98;99276.59;5142895;28;20225;-70
2022/04/18 08:59:31;;;;;;;4.60;3.30;;;;;;;7.36;44.20;99281.56;5142554;28;20051;-70
2022/04/18 09:02:04;;;;;;;4.55;3.15;;;;;;;7.40;44.07;99274.38;5142409;27;20116;-70
2022/04/18 09:04:37;;;;;;;4.78;3.45;;;;;;;7.41;44.07;99276.09;5142593;27;20044;-70
2022/04/18 09:07:11;;;;;;;4.57;3.30;;;;;;;7.44;43.82;99275.97;5142483;27;20089;-70
2022/04/18 09:09:43;;;;;;;4.13;2.70;;;;;;;7.09;43.92;99230.00;5142287;27;20092;-70
2022/04/18 09:12:19;;;;;;;4.93;3.45;;;;;;;7.34;44.38;99267.59;5139886;28;20135;-70
2022/04/18 09:14:52;;;;;;;5.72;3.47;;;;;;;7.37;43.84;99267.47;5128543;28;20039;-70
2022/04/18 09:17:29;;;;;;;5.10;3.28;;;;;;;7.37;44.83;99260.41;5127930;28;20039;-70
2022/04/18 09:20:10;;;;;;;4.68;2.72;;;;;;;7.31;45.22;99260.66;5128444;28;20082;-70
2022/04/18 09:22:43;;;;;;;6.30;3.60;;;;;;;7.26;44.78;99259.13;5128512;28;20154;-70
2022/04/18 09:25:16;;;;;;;5.63;3.72;;;;;;;7.21;45.99;99259.34;5128502;28;20047;-70
2022/04/18 09:27:54;;;;;;;8.35;4.10;;;;;;;6.96;45.78;99219.13;5128276;28;20158;-70
2022/04/18 09:30:32;;;;;;;5.20;3.10;;;;;;;7.19;46.57;99263.81;5128218;28;20085;-70
2022/04/18 09:33:06;;;;;;;5.35;3.50;;;;;;;7.18;45.69;99253.34;5128174;28;20043;-70
2022/04/18 09:35:40;;;;;;;4.85;3.40;;;;;;;7.19;47.25;99261.19;5127596;28;20039;-70
2022/04/18 09:38:17;;;;;;;5.07;4.15;;;;;;;7.22;46.16;99262.81;5128013;28;20040;-70
2022/04/18 09:40:51;;;;;;;4.97;3.58;;;;;;;7.15;47.45;99253.47;5128253;28;20040;-70
2022/04/18 09:43:23;;;;;;;5.65;3.88;;;;;;;7.15;47.11;99261.38;5127812;28;20043;-70
2022/04/18 09:45:56;;;;;;;4.47;3.78;;;;;;;7.20;47.70;99267.31;5127927;28;20084;-70
2022/04/18 09:48:33;;;;;;;5.10;3.10;;;;;;;7.18;48.72;99259.47;5128080;28;20039;-70
2022/04/18 09:51:14;;;;;;;5.43;3.15;;;;;;;7.30;48.89;99258.94;5127805;28;20077;-70
2022/04/18 09:53:47;;;;;;;6.05;3.90;;;;;;;7.31;47.79;99262.44;5127954;28;20088;-70
2022/04/18 09:56:21;;;;;;;5.22;4.07;;;;;;;7.29;49.07;99251.09;5127896;28;20043;-70
2022/04/18 09:58:55;;;;;;;7.70;3.50;;;;;;;7.37;47.71;99254.28;5127615;28;20226;-70
2022/04/18 10:01:28;;;;;;;4.82;4.00;;;;;;;7.46;47.92;99250.38;5127239;28;20051;-70
2022/04/18 10:04:02;;;;;;;7.97;4.47;;;;;;;7.48;48.41;99249.41;5127810;28;20043;-70
2022/04/18 10:06:37;;;;;;;4.63;3.17;;;;;;;7.54;49.00;99254.41;5127526;28;20092;-70
2022/04/18 10:09:10;;;;;;;5.78;3.42;;;;;;;6.65;49.16;99095.75;5127621;28;20246;-70
2022/04/18 10:11:44;;;;;;;6.88;4.22;;;;;;;7.61;49.85;99254.97;5127832;28;20093;-70
2022/04/18 10:14:16;;;;;;;4.50;3.63;;;;;;;6.54;49.11;99084.84;5127394;28;20058;-70
2022/04/18 10:16:48;;;;;;;5.70;3.40;;;;;;;7.70;48.72;99249.28;5127248;28;20085;-70
2022/04/18 10:19:42;;;;;;;6.35;3.67;;;;;;;7.79;50.77;99240.97;5127231;28;20061;-70
2022/04/18 10:22:49;;;;;;;6.57;4.18;;;;;;;8.25;54.44;99237.03;5127402;28;20047;-68
2022/04/18 10:25:33;;;;;;;5.25;3.97;;;;;;;8.65;51.90;99230.69;5126418;28;20040;-68
2022/04/18 10:28:14;;;;;;;5.70;4.20;;;;;;;8.83;49.89;99226.28;5127425;28;20043;-67
2022/04/18 10:30:51;;;;;;;5.30;3.85;;;;;;;9.00;48.33;99214.84;5127065;28;20051;-67
2022/04/18 10:33:24;;;;;;;5.28;4.45;;;;;;;9.16;47.89;99221.06;5127319;28;20048;-67
2022/04/18 10:36:03;;;;;;;4.90;3.55;;;;;;;9.18;47.84;99211.25;5126971;28;20085;-68
2022/04/18 10:38:40;;;;;;;6.53;3.67;;;;;;;9.11;48.04;99201.94;5126945;27;20088;-68
2022/04/18 10:41:34;;;;;;;5.78;4.05;;;;;;;9.21;47.89;99197.91;5126113;28;20043;-68
2022/04/18 10:44:08;;;;;;;5.70;3.78;;;;;;;9.02;46.32;99212.97;5127157;28;20077;-70
2022/04/18 10:46:42;;;;;;;4.55;3.90;;;;;;;8.58;46.39;99157.09;5127010;28;20233;-70
2022/04/18 10:49:16;;;;;;;7.93;4.00;;;;;;;8.77;46.79;99196.66;5126544;28;20043;-71
2022/04/18 10:51:51;;;;;;;3.83;3.05;;;;;;;8.28;46.69;99133.91;5126838;28;20036;-70
2022/04/18 10:54:28;;;;;;;4.97;3.70;;;;;;;8.61;47.15;99189.50;5126534;28;20084;-70
2022/04/18 10:57:03;;;;;;;6.90;3.50;;;;;;;8.55;46.63;99188.94;5126707;28;20084;-70
2022/04/18 10:59:37;;;;;;;7.30;4.28;;;;;;;8.52;46.99;99194.38;5126370;28;20043;-70
2022/04/18 11:02:31;;;;;;;5.35;3.70;;;;;;;8.53;46.68;99194.31;5126257;28;20051;-70
2022/04/18 11:05:07;;;;;;;5.35;3.35;;;;;;;8.57;47.11;99189.72;5126367;28;20084;-70
2022/04/18 11:07:40;;;;;;;6.43;3.80;;;;;;;8.64;46.83;99191.13;5126485;28;20238;-70
2022/04/18 11:10:19;;;;;;;5.80;4.07;;;;;;;8.79;47.13;99186.88;5126261;28;20245;-70
2022/04/18 11:12:50;;;;;;;6.55;4.05;;;;;;;8.90;47.05;99171.31;5126537;28;20088;-71
2022/04/18 11:15:18;;;;;;;4.82;3.10;;;;;;;8.86;46.54;99175.91;5126670;28;20052;-70
2022/04/18 11:17:48;;;;;;;5.90;3.58;;;;;;;9.02;46.11;99172.47;5126012;28;20103;-70
2022/04/18 11:20:33;;;;;;;4.97;3.28;;;;;;;8.71;47.23;99094.78;5126051;28;20334;-70
2022/04/18 11:23:20;;;;;;;5.50;3.25;;;;;;;9.25;47.52;99177.44;5125793;28;20127;-71
2022/04/18 11:25:54;;;;;;;4.10;3.50;;;;;;;9.24;46.61;99168.66;5126015;28;20080;-71
2022/04/18 11:28:33;;;;;;;4.70;3.33;;;;;;;9.34;47.03;99162.88;5126024;28;20288;-70
2022/04/18 11:31:10;;;;;;;5.38;3.72;;;;;;;8.13;46.54;99002.69;5125838;28;20099;-70
2022/04/18 11:33:43;;;;;;;5.00;3.45;;;;;;;9.33;46.48;99164.69;5126133;28;20143;-70
2022/04/18 11:36:17;;;;;;;6.30;3.47;;;;;;;9.46;45.80;99160.47;5124982;28;20104;-70
2022/04/18 11:38:49;;;;;;;6.40;3.88;;;;;;;9.57;45.53;99162.53;5125696;28;20084;-70
2022/04/18 11:41:21;;;;;;;4.40;3.53;;;;;;;9.69;45.52;99161.03;5125696;28;20040;-70
2022/04/18 11:43:57;;;;;;;5.35;3.42;;;;;;;9.40;45.79;99102.63;5126015;28;20047;-70
2022/04/18 11:46:30;;;;;;;5.88;3.85;;;;;;;9.88;45.72;99148.50;5125965;28;20051;-70
2022/04/18 11:49:03;;;;;;;5.15;3.25;;;;;;;9.88;44.95;99149.34;5125701;28;20180;-70
2022/04/18 11:51:40;;;;;;;3.95;3.03;;;;;;;10.03;45.21;99138.84;5125024;28;20051;-70
2022/04/18 11:54:12;;;;;;;6.35;4.43;;;;;;;10.14;44.56;99133.78;5126074;28;20044;-71
2022/04/18 11:56:57;;;;;;;5.20;3.28;;;;;;;10.26;45.67;99123.34;5126036;28;20180;-69
2022/04/18 11:59:29;;;;;;;5.63;2.90;;;;;;;10.53;44.38;99120.03;5126358;28;20073;-70
2022/04/18 12:07:46;;;;;;;5.38;3.58;;;;;;;11.10;44.05;99107.78;5125849;28;20242;-70
2022/04/18 12:10:24;;;;;;;5.97;3.63;;;;;;;11.32;43.57;99099.34;5125909;28;20035;-70
2022/04/18 12:12:57;;;;;;;5.95;4.03;;;;;;;11.38;42.92;99096.31;5125042;28;20048;-70
2022/04/18 12:15:30;;;;;;;7.05;4.28;;;;;;;11.65;42.54;99092.84;5124890;28;20096;-70
2022/04/18 12:18:10;;;;;;;6.32;4.10;;;;;;;11.83;42.54;99081.06;5125034;28;20081;-71
2022/04/18 12:20:44;;;;;;;6.13;3.78;;;;;;;11.99;42.33;99079.13;5125757;28;20089;-70
2022/04/18 12:23:20;;;;;;;6.65;3.33;;;;;;;12.12;41.67;99076.53;5125845;28;20040;-71
2022/04/18 12:25:54;;;;;;;6.03;3.70;;;;;;;12.13;41.10;99044.56;5125593;28;20044;-69
2022/04/18 12:28:28;;;;;;;5.13;3.03;;;;;;;12.25;40.72;99060.66;5125850;28;20039;-70
2022/04/18 12:31:02;;;;;;;6.10;2.85;;;;;;;12.03;40.39;99013.41;5124841;28;20044;-70